Alpine Marie — H3UD — position and weather

sailwx.info

Track history (hours):
 
Tides and Currents Weather Stations Pressure Air Temp Water Temp Dewpoint Dewpoint Depression Visibility Wind Speed Wind Dir Waves Ship Positions

Alpine Marie

Last reported at 2014-Sep-15 11:33 UTC. Time now 2014-Sep-19 23:57 UTC.
Position N 35°04' E 139°41'.

Length 172 m; draft 8.1 m.

Type: Tanker. MMSI: 353172000.

Date/timePositionNaut miles runAvg speedWind from/ knotsBaromVisibWave heightAir tempDewpointWater temp
2014-Sep-15 11:33N 35°04' E 139°41'10 9.8
2014-Sep-15 10:33N 35°13' E 139°46'8 8.3
2014-Sep-15 09:33N 35°19' E 139°39'0 0.2
2014-Sep-15 08:26N 35°18' E 139°39'0 0.0
2014-Sep-15 02:20N 35°18' E 139°39'0 0.0
2014-Sep-15 00:26N 35°18' E 139°39'0 0.0
2014-Sep-14 21:14N 35°18' E 139°39'0 0.0
2014-Sep-14 13:08N 35°18' E 139°39'0 0.0
2014-Sep-14 11:08N 35°18' E 139°39'0 0.1
2014-Sep-14 05:33N 35°19' E 139°39'8 8.5
2014-Sep-14 04:33N 35°13' E 139°47'8 8.3
2014-Sep-14 03:33N 35°05' E 139°44'8 7.6
2014-Sep-14 02:31N 35°01' E 139°36'1111.4
2014-Sep-14 01:33N 34°55' E 139°25'  
Track history (hours):
 
Tides and Currents Weather Stations Pressure Air Temp Water Temp Dewpoint Dewpoint Depression Visibility Wind Speed Wind Dir Waves Ship Positions

Alpine Marie

Last reported at 2014-Sep-15 11:33 UTC. Time now 2014-Sep-19 23:57 UTC.
Position N 35°04' E 139°41'.

Length 172 m; draft 8.1 m.

Type: Tanker. MMSI: 353172000.

Date/timePositionNaut miles runAvg speedWind from/ knotsBaromVisibWave heightAir tempDewpointWater temp
2014-Sep-15 11:33N 35°04' E 139°41'10 9.8
2014-Sep-15 10:33N 35°13' E 139°46'8 8.3
2014-Sep-15 09:33N 35°19' E 139°39'0 0.2
2014-Sep-15 08:26N 35°18' E 139°39'0 0.0
2014-Sep-15 02:20N 35°18' E 139°39'0 0.0
2014-Sep-15 00:26N 35°18' E 139°39'0 0.0
2014-Sep-14 21:14N 35°18' E 139°39'0 0.0
2014-Sep-14 13:08N 35°18' E 139°39'0 0.0
2014-Sep-14 11:08N 35°18' E 139°39'0 0.1
2014-Sep-14 05:33N 35°19' E 139°39'8 8.5
2014-Sep-14 04:33N 35°13' E 139°47'8 8.3
2014-Sep-14 03:33N 35°05' E 139°44'8 7.6
2014-Sep-14 02:31N 35°01' E 139°36'1111.4
2014-Sep-14 01:33N 34°55' E 139°25'  

Dump ship's entire track history